Time;durP1;ratioP1;P1;durP2;ratioP2;P2;SDS_P1;SDS_P2;PMS_P1;PMS_P2;Temp;Humidity;BMP_temperature;BMP_pressure;BME280_temperature;BME280_humidity;BME280_pressure;Samples;Min_cycle;Max_cycle;Signal;HPM_P1;HPM_P2
2024/01/01 00:02:20;;;;;;;6.07;2.85;;;7.90;99.90;;;;;;5102605;28;20381;-73
2024/01/01 00:04:46;;;;;;;9.80;3.22;;;7.90;99.90;;;;;;5110499;28;20046;-73
2024/01/01 00:07:11;;;;;;;9.23;3.75;;;7.90;99.90;;;;;;5128028;27;20503;-73
2024/01/01 00:09:37;;;;;;;11.35;3.83;;;7.90;99.90;;;;;;5111591;28;20039;-73
2024/01/01 00:12:03;;;;;;;8.55;3.67;;;7.90;99.90;;;;;;5100186;28;20047;-73
2024/01/01 00:14:28;;;;;;;8.13;3.58;;;7.90;99.90;;;;;;5101489;27;20537;-73
2024/01/01 00:16:54;;;;;;;9.25;3.65;;;7.90;99.90;;;;;;5104362;28;20039;-73
2024/01/01 00:19:20;;;;;;;9.15;4.20;;;8.00;99.90;;;;;;5091262;28;20036;-73
2024/01/01 00:21:46;;;;;;;8.73;3.20;;;8.00;99.90;;;;;;5095095;27;20046;-73
2024/01/01 00:24:12;;;;;;;8.20;3.75;;;7.90;99.90;;;;;;5114806;27;20092;-73
2024/01/01 00:26:37;;;;;;;9.73;3.97;;;8.00;99.90;;;;;;5097211;27;20039;-73
2024/01/01 00:29:03;;;;;;;9.98;3.25;;;8.00;99.90;;;;;;5105366;28;20508;-73
2024/01/01 00:31:31;;;;;;;6.93;3.80;;;8.00;99.90;;;;;;5107257;27;20035;-73
2024/01/01 00:33:56;;;;;;;8.13;3.78;;;8.00;99.90;;;;;;5113582;27;20134;-73
2024/01/01 00:36:22;;;;;;;9.00;3.45;;;8.00;99.90;;;;;;5112071;27;20539;-73
2024/01/01 00:38:50;;;;;;;11.00;3.30;;;8.00;99.90;;;;;;5127247;27;20050;-73
2024/01/01 00:41:16;;;;;;;8.55;3.78;;;8.10;99.90;;;;;;5114384;27;20046;-73
2024/01/01 00:43:43;;;;;;;9.75;3.65;;;8.10;99.90;;;;;;5098939;27;20043;-73
2024/01/01 00:46:09;;;;;;;10.27;4.25;;;8.10;99.90;;;;;;5084664;28;20047;-73
2024/01/01 00:48:35;;;;;;;12.55;5.68;;;8.10;99.90;;;;;;5108687;27;20400;-73
2024/01/01 00:51:01;;;;;;;8.70;3.90;;;8.10;99.90;;;;;;5127964;27;20122;-73
2024/01/01 00:53:27;;;;;;;8.90;4.10;;;8.10;99.90;;;;;;5108178;28;20043;-73
2024/01/01 00:55:53;;;;;;;12.00;5.72;;;8.10;99.90;;;;;;5076965;28;20039;-73
2024/01/01 00:58:18;;;;;;;8.95;4.93;;;8.10;99.90;;;;;;5103366;27;20043;-73
2024/01/01 01:00:44;;;;;;;11.95;5.63;;;8.20;99.90;;;;;;5111845;27;20035;-73
2024/01/01 01:03:10;;;;;;;12.52;4.47;;;8.20;99.90;;;;;;5084321;27;20031;-73
2024/01/01 01:05:35;;;;;;;9.18;4.50;;;8.20;99.90;;;;;;5114751;27;20035;-73
2024/01/01 01:08:01;;;;;;;11.73;5.32;;;8.20;99.90;;;;;;5123911;27;20385;-73
2024/01/01 01:10:27;;;;;;;12.57;4.93;;;8.20;99.90;;;;;;5114313;27;20480;-73
2024/01/01 01:12:55;;;;;;;9.45;4.70;;;8.20;99.90;;;;;;5127317;27;20047;-73
2024/01/01 01:15:26;;;;;;;7.53;3.47;;;8.20;99.90;;;;;;5096783;27;20130;-73
2024/01/01 01:17:52;;;;;;;10.45;3.67;;;8.20;99.90;;;;;;5102916;27;20039;-73
2024/01/01 01:20:18;;;;;;;9.23;3.80;;;8.20;99.90;;;;;;5092327;27;20043;-72
2024/01/01 01:22:44;;;;;;;9.68;4.55;;;8.20;99.90;;;;;;5084292;27;20039;-73
2024/01/01 01:25:12;;;;;;;11.98;3.83;;;8.20;99.90;;;;;;5111933;27;20126;-73
2024/01/01 01:27:40;;;;;;;7.70;3.17;;;8.30;99.90;;;;;;5113184;27;20072;-73
2024/01/01 01:30:06;;;;;;;13.77;4.18;;;8.30;99.90;;;;;;5100951;28;20130;-73
2024/01/01 01:32:31;;;;;;;7.53;3.33;;;8.30;99.90;;;;;;5093003;28;20059;-73
2024/01/01 01:34:57;;;;;;;7.70;3.42;;;8.30;99.90;;;;;;5083161;28;20373;-73
2024/01/01 01:37:23;;;;;;;7.13;3.80;;;8.20;99.90;;;;;;5109961;28;20054;-73
2024/01/01 01:39:48;;;;;;;11.45;4.78;;;8.20;99.90;;;;;;5123708;27;20455;-73
2024/01/01 01:42:14;;;;;;;10.82;4.47;;;8.20;99.90;;;;;;5112840;27;20032;-73
2024/01/01 01:44:40;;;;;;;7.95;3.65;;;8.20;99.90;;;;;;5113359;27;20050;-72
2024/01/01 01:47:06;;;;;;;10.43;5.20;;;8.20;99.90;;;;;;5099521;28;20520;-73
2024/01/01 01:49:32;;;;;;;11.30;5.05;;;8.20;99.90;;;;;;5118531;27;20027;-73
2024/01/01 01:52:01;;;;;;;12.05;5.18;;;8.20;99.90;;;;;;5093157;27;20413;-72
2024/01/01 01:54:27;;;;;;;14.48;5.97;;;8.20;99.90;;;;;;5097221;27;20100;-73
2024/01/01 01:56:54;;;;;;;12.07;4.85;;;8.20;99.90;;;;;;5093480;28;20043;-73
2024/01/01 01:59:21;;;;;;;10.18;5.57;;;8.20;99.90;;;;;;5099406;27;20039;-73
2024/01/01 02:01:47;;;;;;;11.20;4.60;;;8.20;99.90;;;;;;5101747;28;20513;-73
2024/01/01 02:04:13;;;;;;;13.70;5.95;;;8.20;99.90;;;;;;5078243;27;20035;-72
2024/01/01 02:06:39;;;;;;;14.45;6.60;;;8.20;99.90;;;;;;5111284;27;20091;-73
2024/01/01 02:09:06;;;;;;;12.70;4.82;;;8.20;99.90;;;;;;5098000;27;20511;-72
2024/01/01 02:11:32;;;;;;;13.75;5.72;;;8.20;99.90;;;;;;5095983;27;20057;-72
2024/01/01 02:14:14;;;;;;;13.88;6.47;;;8.20;99.90;;;;;;5106551;28;20489;-73
2024/01/01 02:16:40;;;;;;;19.88;7.18;;;8.20;99.90;;;;;;5111992;27;20035;-73
2024/01/01 02:19:17;;;;;;;11.40;4.90;;;8.20;99.90;;;;;;5113130;27;20042;-73
2024/01/01 02:21:43;;;;;;;12.35;5.75;;;8.20;99.90;;;;;;5114565;27;20054;-73
2024/01/01 02:24:09;;;;;;;10.73;4.68;;;8.20;99.90;;;;;;5129656;27;20039;-73
2024/01/01 02:26:35;;;;;;;9.05;4.68;;;8.20;99.90;;;;;;5119797;27;20039;-73
2024/01/01 02:29:00;;;;;;;11.68;5.13;;;8.20;99.90;;;;;;5094238;27;20046;-72
2024/01/01 02:31:26;;;;;;;10.93;4.28;;;8.20;99.90;;;;;;5095341;27;20066;-73
2024/01/01 02:33:51;;;;;;;8.55;3.55;;;8.20;99.90;;;;;;5111781;27;20103;-72
2024/01/01 02:36:17;;;;;;;9.95;4.78;;;8.20;99.90;;;;;;5113963;27;20066;-73
2024/01/01 02:38:43;;;;;;;13.65;4.53;;;8.20;99.90;;;;;;5121212;27;20496;-74
2024/01/01 02:41:08;;;;;;;7.30;3.20;;;8.10;99.90;;;;;;5106830;27;20568;-73
2024/01/01 02:43:34;;;;;;;11.45;3.40;;;8.10;99.90;;;;;;5113429;27;20481;-73
2024/01/01 02:46:00;;;;;;;7.57;3.65;;;8.10;99.90;;;;;;5107549;27;20504;-73
2024/01/01 02:48:26;;;;;;;8.75;3.72;;;8.10;99.90;;;;;;5104665;27;20042;-73
2024/01/01 02:50:52;;;;;;;9.00;3.33;;;8.20;99.90;;;;;;5116893;27;20034;-74
2024/01/01 02:53:18;;;;;;;8.57;3.22;;;8.10;99.90;;;;;;5100498;27;20047;-73
2024/01/01 02:55:44;;;;;;;5.80;2.55;;;8.10;99.90;;;;;;5098951;27;20492;-73
2024/01/01 02:58:10;;;;;;;6.40;2.22;;;8.00;99.90;;;;;;5102452;27;20080;-74
2024/01/01 03:00:36;;;;;;;6.43;2.22;;;8.00;99.90;;;;;;5118344;27;20076;-73
2024/01/01 03:03:03;;;;;;;5.22;3.13;;;7.90;99.90;;;;;;5103411;27;20047;-73
2024/01/01 03:05:28;;;;;;;7.38;2.33;;;7.80;99.90;;;;;;5092536;27;20035;-73
2024/01/01 03:07:54;;;;;;;4.40;2.25;;;7.80;99.90;;;;;;5110287;27;20030;-73
2024/01/01 03:10:20;;;;;;;6.05;1.92;;;7.80;99.90;;;;;;5121100;27;20034;-73
2024/01/01 03:12:46;;;;;;;4.07;1.50;;;7.70;99.90;;;;;;5103096;27;20030;-73
2024/01/01 03:15:12;;;;;;;5.32;1.38;;;7.70;99.90;;;;;;5110579;28;20412;-73
2024/01/01 03:17:38;;;;;;;3.50;1.50;;;7.70;99.90;;;;;;5113001;27;20050;-73
2024/01/01 03:20:04;;;;;;;2.83;1.30;;;7.70;99.90;;;;;;5100281;28;20042;-73
2024/01/01 03:22:30;;;;;;;3.58;1.08;;;7.70;99.90;;;;;;5108223;27;20038;-73
2024/01/01 03:24:56;;;;;;;2.40;1.27;;;7.70;99.90;;;;;;5103929;27;20072;-73
2024/01/01 03:27:22;;;;;;;4.90;0.90;;;7.70;99.90;;;;;;5108709;27;20396;-73
2024/01/01 03:29:48;;;;;;;5.57;1.10;;;7.70;99.90;;;;;;5119420;27;20031;-73
2024/01/01 03:32:14;;;;;;;2.58;0.80;;;7.70;99.90;;;;;;5111626;27;20122;-73
2024/01/01 03:34:40;;;;;;;5.85;1.30;;;7.60;99.90;;;;;;5088454;28;20603;-73
2024/01/01 03:37:05;;;;;;;2.03;1.08;;;7.60;99.90;;;;;;5110362;27;20100;-73
2024/01/01 03:39:31;;;;;;;2.28;1.27;;;7.60;99.90;;;;;;5099591;27;20044;-73
2024/01/01 03:41:57;;;;;;;1.42;0.52;;;7.60;99.90;;;;;;5095459;28;20041;-73
2024/01/01 03:44:22;;;;;;;1.40;0.65;;;7.50;99.90;;;;;;5112889;27;20035;-73
2024/01/01 03:46:48;;;;;;;1.20;0.68;;;7.50;99.90;;;;;;5112921;27;20027;-73
2024/01/01 03:49:14;;;;;;;1.35;0.60;;;7.50;99.90;;;;;;5091771;27;20038;-73
2024/01/01 03:51:39;;;;;;;2.00;1.08;;;7.50;99.90;;;;;;5103297;28;20687;-73
2024/01/01 03:54:05;;;;;;;0.63;0.60;;;7.50;99.90;;;;;;5099037;27;20481;-73
2024/01/01 03:56:31;;;;;;;1.63;0.77;;;7.50;99.90;;;;;;5108091;27;20078;-73
2024/01/01 03:58:59;;;;;;;3.63;0.95;;;7.50;99.90;;;;;;5095524;27;20103;-73
2024/01/01 04:01:26;;;;;;;1.08;0.45;;;7.40;99.90;;;;;;5113422;27;20031;-73
2024/01/01 04:03:52;;;;;;;3.72;1.08;;;7.40;99.90;;;;;;5098400;27;20046;-73
2024/01/01 04:06:18;;;;;;;3.08;0.80;;;7.40;99.90;;;;;;5119520;27;20046;-73
2024/01/01 04:08:44;;;;;;;1.38;0.40;;;7.40;99.90;;;;;;5121252;27;20031;-73
2024/01/01 04:11:09;;;;;;;1.20;0.47;;;7.40;99.90;;;;;;5119601;27;20118;-73
2024/01/01 04:13:35;;;;;;;0.90;0.60;;;7.40;99.90;;;;;;5104039;27;20031;-73
2024/01/01 04:16:02;;;;;;;0.68;0.40;;;7.40;99.90;;;;;;5099923;27;20039;-73
2024/01/01 04:18:27;;;;;;;0.63;0.28;;;7.40;99.90;;;;;;5121324;27;20686;-73
2024/01/01 04:20:53;;;;;;;0.98;0.55;;;7.40;99.90;;;;;;5111010;27;20066;-73
2024/01/01 04:23:19;;;;;;;0.88;0.32;;;7.40;99.90;;;;;;5111898;27;20036;-73
2024/01/01 04:25:44;;;;;;;0.77;0.40;;;7.40;99.90;;;;;;5129522;27;20026;-73
2024/01/01 04:28:10;;;;;;;0.55;0.40;;;7.40;99.90;;;;;;5118879;27;20042;-73
2024/01/01 04:30:36;;;;;;;0.98;0.30;;;7.40;99.90;;;;;;5101387;27;20042;-73
2024/01/01 04:33:01;;;;;;;2.70;0.40;;;7.40;99.90;;;;;;5108135;27;20491;-73
2024/01/01 04:35:27;;;;;;;0.30;0.30;;;7.40;99.90;;;;;;5119315;27;20072;-73
2024/01/01 04:37:52;;;;;;;1.80;0.35;;;7.40;99.90;;;;;;5119635;27;20100;-73
2024/01/01 04:40:20;;;;;;;0.85;0.47;;;7.40;99.90;;;;;;5107930;27;20038;-74
2024/01/01 04:42:48;;;;;;;0.52;0.20;;;7.30;99.90;;;;;;5118080;27;20114;-73
2024/01/01 04:45:14;;;;;;;1.02;0.50;;;7.30;99.90;;;;;;5095795;28;20039;-73
2024/01/01 04:47:40;;;;;;;1.05;0.30;;;7.30;99.90;;;;;;5125055;27;20030;-73
2024/01/01 04:50:06;;;;;;;1.23;0.55;;;7.30;99.90;;;;;;5106658;27;20465;-73
2024/01/01 04:52:31;;;;;;;4.78;1.13;;;7.30;99.90;;;;;;5084047;27;20389;-73
2024/01/01 04:54:57;;;;;;;0.85;0.40;;;7.30;99.90;;;;;;5120617;27;20023;-73
2024/01/01 04:57:23;;;;;;;1.08;0.65;;;7.30;99.90;;;;;;5127631;27;20035;-73
2024/01/01 04:59:48;;;;;;;3.40;0.47;;;7.30;99.90;;;;;;5095281;27;20115;-73
2024/01/01 05:02:15;;;;;;;2.60;0.20;;;7.30;99.90;;;;;;5093610;28;20039;-73
2024/01/01 05:04:41;;;;;;;0.32;0.17;;;7.30;99.90;;;;;;5104127;27;20043;-73
2024/01/01 05:07:06;;;;;;;1.40;0.85;;;7.30;99.90;;;;;;5126654;27;20034;-73
2024/01/01 05:09:32;;;;;;;5.47;0.90;;;7.30;99.90;;;;;;5116122;27;20034;-73
2024/01/01 05:11:58;;;;;;;3.75;0.77;;;7.30;99.90;;;;;;5110625;27;20047;-73
2024/01/01 05:14:24;;;;;;;1.08;0.52;;;7.30;99.90;;;;;;5125482;27;20050;-73
2024/01/01 05:16:50;;;;;;;0.70;0.50;;;7.30;99.90;;;;;;5094475;27;20045;-73
2024/01/01 05:19:16;;;;;;;1.25;0.98;;;7.20;99.90;;;;;;5106266;27;20081;-73
2024/01/01 05:21:41;;;;;;;2.05;0.40;;;7.30;99.90;;;;;;5103506;27;20067;-73
2024/01/01 05:24:07;;;;;;;2.45;0.75;;;7.30;99.90;;;;;;5095420;27;20127;-73
2024/01/01 05:26:33;;;;;;;5.57;0.80;;;7.20;99.90;;;;;;5103304;27;20032;-73
2024/01/01 05:28:59;;;;;;;5.75;0.95;;;7.30;99.90;;;;;;5113165;27;20624;-73
2024/01/01 05:31:24;;;;;;;0.77;0.40;;;7.30;99.90;;;;;;5120253;27;20035;-73
2024/01/01 05:33:50;;;;;;;1.38;0.75;;;7.30;99.90;;;;;;5120691;27;20035;-73
2024/01/01 05:36:15;;;;;;;1.00;0.38;;;7.30;99.90;;;;;;5114534;27;20043;-73
2024/01/01 05:38:41;;;;;;;0.40;0.13;;;7.30;99.90;;;;;;5118939;27;20042;-73
2024/01/01 05:41:10;;;;;;;1.05;0.30;;;7.20;99.90;;;;;;5105147;27;20092;-73
2024/01/01 05:43:36;;;;;;;2.15;0.40;;;7.30;99.90;;;;;;5109665;27;20090;-73
2024/01/01 05:46:02;;;;;;;1.48;0.55;;;7.30;99.90;;;;;;5118633;27;20066;-73
2024/01/01 05:48:27;;;;;;;3.47;0.77;;;7.30;99.90;;;;;;5086603;27;20068;-73
2024/01/01 05:50:53;;;;;;;1.38;0.77;;;7.30;99.90;;;;;;5114302;27;20030;-73
2024/01/01 05:53:18;;;;;;;2.35;0.50;;;7.30;99.90;;;;;;5098179;27;20069;-73
2024/01/01 05:55:44;;;;;;;2.85;0.25;;;7.30;99.90;;;;;;5111842;27;20110;-73
2024/01/01 05:58:10;;;;;;;1.20;0.50;;;7.40;99.90;;;;;;5123562;27;20042;-73
2024/01/01 06:00:37;;;;;;;1.45;0.50;;;7.40;99.90;;;;;;5110252;27;20038;-73
2024/01/01 06:03:04;;;;;;;1.88;0.55;;;7.30;99.90;;;;;;5082064;28;20436;-73
2024/01/01 06:05:33;;;;;;;0.65;0.32;;;7.30;99.90;;;;;;5112360;27;20838;-73
2024/01/01 06:08:00;;;;;;;0.77;0.30;;;7.40;99.90;;;;;;5120056;27;20458;-73
2024/01/01 06:10:26;;;;;;;1.23;1.05;;;7.40;99.90;;;;;;5104817;27;20043;-73
2024/01/01 06:12:52;;;;;;;1.77;0.60;;;7.40;99.90;;;;;;5099787;27;20408;-73
2024/01/01 06:15:18;;;;;;;0.73;0.40;;;7.40;99.90;;;;;;5115724;27;20045;-73
2024/01/01 06:17:43;;;;;;;0.68;0.28;;;7.40;99.90;;;;;;5118349;27;20436;-73
2024/01/01 06:20:09;;;;;;;0.82;0.50;;;7.40;99.90;;;;;;5124000;27;20039;-73
2024/01/01 06:22:35;;;;;;;0.30;0.20;;;7.40;99.90;;;;;;5123487;27;20039;-73
2024/01/01 06:25:00;;;;;;;1.90;0.40;;;7.40;99.90;;;;;;5120181;27;20111;-73
2024/01/01 06:27:26;;;;;;;1.65;0.45;;;7.40;99.90;;;;;;5115849;27;20164;-73
2024/01/01 06:29:52;;;;;;;1.30;0.50;;;7.40;99.90;;;;;;5111113;27;20389;-73
2024/01/01 06:32:17;;;;;;;3.90;0.77;;;7.40;99.90;;;;;;5120414;27;20042;-73
2024/01/01 06:34:44;;;;;;;1.48;0.35;;;7.40;99.90;;;;;;5108990;27;20031;-73
2024/01/01 06:37:10;;;;;;;2.00;0.38;;;7.40;99.90;;;;;;5107342;27;20045;-73
2024/01/01 06:39:35;;;;;;;1.02;0.40;;;7.40;99.90;;;;;;5111611;27;20035;-73
2024/01/01 06:42:01;;;;;;;1.55;0.80;;;7.30;99.90;;;;;;5126640;27;20121;-73
2024/01/01 06:44:27;;;;;;;1.08;0.30;;;7.40;99.90;;;;;;5125524;27;20031;-73
2024/01/01 06:46:53;;;;;;;1.05;0.63;;;7.40;99.90;;;;;;5095067;27;20260;-73
2024/01/01 06:49:19;;;;;;;1.30;0.40;;;7.40;99.90;;;;;;5114078;27;20040;-73
2024/01/01 06:51:53;;;;;;;0.98;0.43;;;7.40;99.90;;;;;;5104566;27;20038;-73
2024/01/01 06:54:19;;;;;;;2.37;0.40;;;7.40;99.90;;;;;;5091951;27;20084;-73
2024/01/01 06:56:45;;;;;;;0.90;0.38;;;7.40;99.90;;;;;;5104294;27;20038;-73
2024/01/01 06:59:13;;;;;;;1.25;0.43;;;7.40;99.90;;;;;;5122344;27;20054;-73
2024/01/01 07:01:38;;;;;;;0.65;0.30;;;7.40;99.90;;;;;;5113034;27;20036;-73
2024/01/01 07:04:04;;;;;;;1.17;0.38;;;7.40;99.90;;;;;;5108578;27;20031;-73
2024/01/01 07:06:30;;;;;;;1.13;0.30;;;7.40;99.90;;;;;;5111774;27;20088;-73
2024/01/01 07:08:55;;;;;;;1.23;0.30;;;7.40;99.90;;;;;;5125529;27;20485;-73
2024/01/01 07:11:21;;;;;;;2.80;0.50;;;7.40;99.90;;;;;;5107756;27;20084;-73
2024/01/01 07:13:47;;;;;;;0.52;0.30;;;7.40;99.90;;;;;;5118767;27;20068;-73
2024/01/01 07:16:12;;;;;;;1.52;0.55;;;7.40;99.90;;;;;;5115103;27;20043;-73
2024/01/01 07:18:38;;;;;;;2.42;0.40;;;7.50;99.90;;;;;;5111771;27;20525;-74
2024/01/01 07:21:06;;;;;;;1.13;0.70;;;7.40;99.90;;;;;;5087990;27;20039;-73
2024/01/01 07:23:32;;;;;;;3.20;0.50;;;7.40;99.90;;;;;;5110721;27;20524;-73
2024/01/01 07:25:58;;;;;;;1.13;0.40;;;7.40;99.90;;;;;;5099707;28;20574;-73
2024/01/01 07:28:25;;;;;;;4.07;0.60;;;7.40;99.90;;;;;;5120160;27;20070;-73
2024/01/01 07:30:51;;;;;;;2.92;0.43;;;7.40;99.90;;;;;;5102037;27;20046;-73
2024/01/01 07:33:17;;;;;;;1.90;0.70;;;7.40;99.90;;;;;;5111568;27;20042;-73
2024/01/01 07:35:44;;;;;;;1.88;0.35;;;7.40;99.90;;;;;;5114548;27;20408;-73
2024/01/01 07:38:09;;;;;;;0.88;0.50;;;7.40;99.90;;;;;;5121514;27;20086;-73
2024/01/01 07:40:35;;;;;;;0.93;0.47;;;7.40;99.90;;;;;;5107848;27;20066;-73
2024/01/01 07:43:03;;;;;;;1.23;0.57;;;7.40;99.90;;;;;;5098785;28;20042;-73
2024/01/01 07:45:28;;;;;;;1.05;0.50;;;7.40;99.90;;;;;;5123482;27;20369;-73
2024/01/01 07:47:54;;;;;;;1.02;0.20;;;7.40;99.90;;;;;;5106234;27;20495;-73
2024/01/01 07:50:20;;;;;;;0.88;0.32;;;7.40;99.90;;;;;;5116144;28;20044;-73
2024/01/01 07:52:45;;;;;;;1.08;0.45;;;7.40;99.90;;;;;;5106298;28;20084;-73
2024/01/01 07:55:12;;;;;;;1.55;0.38;;;7.40;99.90;;;;;;5107459;27;20031;-73
2024/01/01 07:57:39;;;;;;;0.52;0.32;;;7.40;99.90;;;;;;5115225;28;20088;-73
2024/01/01 08:00:06;;;;;;;0.80;0.50;;;7.40;99.90;;;;;;5095343;28;20043;-73
2024/01/01 08:02:32;;;;;;;1.90;0.40;;;7.50;99.90;;;;;;5106981;27;20035;-72
2024/01/01 08:04:59;;;;;;;2.10;1.13;;;7.40;99.90;;;;;;5109830;28;20370;-72
2024/01/01 08:07:24;;;;;;;3.72;0.75;;;7.50;99.90;;;;;;5107012;27;20039;-73
2024/01/01 08:09:50;;;;;;;1.60;0.60;;;7.50;99.90;;;;;;5097124;28;20397;-73
2024/01/01 08:12:16;;;;;;;1.35;0.43;;;7.50;99.90;;;;;;5098455;28;20059;-73
2024/01/01 08:14:42;;;;;;;1.25;0.68;;;7.50;99.90;;;;;;5085738;27;20039;-73
2024/01/01 08:17:08;;;;;;;1.13;0.50;;;7.50;99.90;;;;;;5117496;27;20047;-73
2024/01/01 08:19:34;;;;;;;0.98;0.50;;;7.50;99.90;;;;;;5101141;28;20679;-73
2024/01/01 08:22:00;;;;;;;4.00;0.65;;;7.50;99.90;;;;;;5107011;27;20087;-73
2024/01/01 08:24:26;;;;;;;0.47;0.25;;;7.50;99.90;;;;;;5102310;28;20108;-73
2024/01/01 08:26:52;;;;;;;0.85;0.60;;;7.50;99.90;;;;;;5104893;27;20103;-73
2024/01/01 08:29:17;;;;;;;0.73;0.40;;;7.50;99.90;;;;;;5085263;27;20114;-73
2024/01/01 08:31:43;;;;;;;2.88;0.60;;;7.60;99.90;;;;;;5120002;28;20223;-73
2024/01/01 08:34:09;;;;;;;1.35;0.50;;;7.60;99.90;;;;;;5118600;28;20043;-74
2024/01/01 08:36:35;;;;;;;0.65;0.40;;;7.60;99.90;;;;;;5101180;27;20044;-73
2024/01/01 08:39:01;;;;;;;0.90;0.38;;;7.60;99.90;;;;;;5107749;27;20043;-73
2024/01/01 08:41:26;;;;;;;0.63;0.20;;;7.60;99.90;;;;;;5100249;27;20414;-73
2024/01/01 08:43:56;;;;;;;2.97;0.32;;;7.50;99.90;;;;;;5116388;27;20480;-72
2024/01/01 08:46:26;;;;;;;1.75;0.57;;;7.50;99.90;;;;;;5109119;27;20040;-73
2024/01/01 08:48:52;;;;;;;1.15;0.82;;;7.50;99.90;;;;;;5120145;27;20039;-72
2024/01/01 08:51:21;;;;;;;1.73;0.85;;;7.50;99.90;;;;;;5103863;27;20492;-73
2024/01/01 08:53:46;;;;;;;1.20;0.50;;;7.50;99.90;;;;;;5085084;27;20046;-73
2024/01/01 08:56:12;;;;;;;1.02;0.30;;;7.50;99.90;;;;;;5112178;27;20045;-72
2024/01/01 08:58:38;;;;;;;2.78;1.08;;;7.50;99.90;;;;;;5103450;27;20042;-73
2024/01/01 09:01:05;;;;;;;8.55;3.67;;;7.50;99.90;;;;;;5101232;27;20035;-73
2024/01/01 09:03:31;;;;;;;2.90;1.08;;;7.50;99.90;;;;;;5111856;27;20043;-73
2024/01/01 09:05:58;;;;;;;3.60;1.83;;;7.50;99.90;;;;;;5092929;27;20037;-72
2024/01/01 09:08:24;;;;;;;4.05;2.10;;;7.50;99.90;;;;;;5109653;27;20042;-73
2024/01/01 09:10:49;;;;;;;1.92;0.80;;;7.50;99.90;;;;;;5102787;27;20396;-73
2024/01/01 09:13:15;;;;;;;0.68;0.35;;;7.50;99.90;;;;;;5103722;27;20118;-73
2024/01/01 09:15:41;;;;;;;1.90;1.20;;;7.60;99.90;;;;;;5110672;27;20031;-73
2024/01/01 09:18:10;;;;;;;2.38;1.52;;;7.60;99.90;;;;;;5102778;27;20042;-73
2024/01/01 09:20:35;;;;;;;12.48;4.90;;;7.60;99.90;;;;;;5092881;27;20625;-72
2024/01/01 09:23:01;;;;;;;5.30;1.40;;;7.60;99.90;;;;;;5108094;27;20070;-73
2024/01/01 09:25:27;;;;;;;8.80;3.80;;;7.60;99.90;;;;;;5117980;27;20038;-73
2024/01/01 09:27:52;;;;;;;3.13;1.45;;;7.60;99.90;;;;;;5094580;27;20086;-73
2024/01/01 09:30:18;;;;;;;3.60;1.40;;;7.60;99.90;;;;;;5105962;27;20177;-73
2024/01/01 09:32:44;;;;;;;2.17;1.55;;;7.60;99.90;;;;;;5111817;27;20028;-73
2024/01/01 09:35:10;;;;;;;2.30;0.98;;;7.70;99.90;;;;;;5110189;27;20030;-78
2024/01/01 09:37:38;;;;;;;1.02;0.40;;;7.70;99.90;;;;;;5113754;27;20047;-73
2024/01/01 09:40:05;;;;;;;3.08;0.70;;;7.70;99.90;;;;;;5100472;27;20492;-73
2024/01/01 09:42:31;;;;;;;2.80;1.85;;;7.70;99.90;;;;;;5091892;27;20525;-73
2024/01/01 09:44:57;;;;;;;2.13;1.25;;;7.70;99.90;;;;;;5106268;27;20080;-73
2024/01/01 09:47:22;;;;;;;1.48;0.93;;;7.70;99.90;;;;;;5108777;27;20409;-73
2024/01/01 09:49:48;;;;;;;0.93;0.73;;;7.70;99.90;;;;;;5116883;27;20069;-73
2024/01/01 09:52:14;;;;;;;1.13;0.50;;;7.70;99.90;;;;;;5098222;27;20026;-73
2024/01/01 09:54:43;;;;;;;2.47;0.73;;;7.70;99.90;;;;;;5090526;27;20035;-73
2024/01/01 09:57:09;;;;;;;1.40;0.75;;;7.70;99.90;;;;;;5104509;27;20078;-73
2024/01/01 09:59:40;;;;;;;1.02;0.52;;;7.70;99.90;;;;;;5097357;27;20078;-73
2024/01/01 10:02:07;;;;;;;1.08;0.60;;;7.70;99.90;;;;;;5093518;27;20043;-73
2024/01/01 10:04:34;;;;;;;4.50;0.85;;;7.70;99.90;;;;;;5105674;27;20441;-73
2024/01/01 10:07:00;;;;;;;1.13;0.82;;;7.80;99.90;;;;;;5095237;27;20122;-73
2024/01/01 10:09:27;;;;;;;1.45;0.40;;;7.80;99.90;;;;;;5113013;27;20031;-73
2024/01/01 10:12:04;;;;;;;1.40;0.75;;;7.80;99.90;;;;;;5108228;27;20038;-73
2024/01/01 10:14:30;;;;;;;4.22;0.45;;;7.70;99.90;;;;;;5095879;27;20687;-73
2024/01/01 10:17:13;;;;;;;0.20;0.20;;;7.70;99.90;;;;;;5108531;27;20102;-73
2024/01/01 10:19:50;;;;;;;2.40;0.45;;;7.70;99.90;;;;;;5118660;27;20813;-73
2024/01/01 10:22:18;;;;;;;0.60;0.30;;;7.80;99.90;;;;;;5109739;27;20043;-73
2024/01/01 10:24:47;;;;;;;1.83;0.73;;;7.80;99.90;;;;;;5097873;27;20035;-73
2024/01/01 10:27:19;;;;;;;0.85;0.25;;;7.80;99.90;;;;;;5102966;27;20027;-73
2024/01/01 10:29:49;;;;;;;0.88;0.40;;;7.90;99.90;;;;;;5102427;27;20047;-73
2024/01/01 10:32:16;;;;;;;1.40;0.55;;;7.90;99.90;;;;;;5091935;27;20035;-73
2024/01/01 10:34:44;;;;;;;0.57;0.35;;;7.90;99.90;;;;;;5093774;27;20039;-73
2024/01/01 10:37:11;;;;;;;0.68;0.30;;;7.90;99.90;;;;;;5106761;27;20066;-73
2024/01/01 10:39:39;;;;;;;1.75;0.40;;;7.90;99.90;;;;;;5108021;27;20047;-73
2024/01/01 10:42:06;;;;;;;0.40;0.30;;;7.90;99.90;;;;;;5083861;27;20489;-73
2024/01/01 10:44:31;;;;;;;1.27;0.40;;;8.00;99.90;;;;;;5096491;27;20031;-73
2024/01/01 10:47:00;;;;;;;0.57;0.32;;;8.00;99.90;;;;;;5115711;27;20037;-73
2024/01/01 10:49:30;;;;;;;2.55;0.52;;;8.00;99.90;;;;;;5112523;27;20034;-73
2024/01/01 10:51:55;;;;;;;0.93;0.40;;;8.00;99.90;;;;;;5116317;27;20043;-74
2024/01/01 10:55:11;;;;;;;1.92;0.50;;;8.10;99.90;;;;;;5133223;27;20768;-74
2024/01/01 10:57:45;;;;;;;1.13;0.65;;;8.10;99.90;;;;;;5069122;27;20047;-73
2024/01/01 11:00:41;;;;;;;0.65;0.30;;;8.10;99.90;;;;;;5090052;27;20043;-73
2024/01/01 11:03:13;;;;;;;0.55;0.20;;;8.10;99.90;;;;;;5114101;27;20170;-74
2024/01/01 11:05:38;;;;;;;1.15;0.60;;;8.10;99.90;;;;;;5111951;27;20039;-74
2024/01/01 11:08:04;;;;;;;0.50;0.30;;;8.10;99.90;;;;;;5089561;27;20045;-73
2024/01/01 11:10:44;;;;;;;1.55;0.80;;;8.10;99.90;;;;;;5111390;27;20054;-73
2024/01/01 11:13:25;;;;;;;1.25;0.40;;;8.00;99.90;;;;;;5114270;27;20486;-73
2024/01/01 11:15:58;;;;;;;1.48;0.50;;;8.00;99.90;;;;;;5111415;27;20039;-73
2024/01/01 11:18:31;;;;;;;0.60;0.40;;;8.10;99.90;;;;;;5109090;27;20090;-73
2024/01/01 11:20:58;;;;;;;0.80;0.57;;;8.10;99.90;;;;;;5110742;27;20448;-73
2024/01/01 11:23:42;;;;;;;1.95;1.00;;;8.10;99.90;;;;;;5116680;27;20118;-73
2024/01/01 11:26:25;;;;;;;1.02;0.22;;;8.10;99.90;;;;;;5093789;27;20416;-73
2024/01/01 11:28:55;;;;;;;2.40;0.30;;;8.10;99.90;;;;;;5111301;27;20050;-73
2024/01/01 11:31:22;;;;;;;1.45;0.60;;;8.10;99.90;;;;;;5087209;27;20109;-76
2024/01/01 11:34:08;;;;;;;1.90;0.60;;;8.10;99.90;;;;;;5090278;27;20075;-73
2024/01/01 11:36:35;;;;;;;0.40;0.32;;;8.10;99.90;;;;;;5120951;27;20622;-73
2024/01/01 11:39:01;;;;;;;1.38;0.38;;;8.10;99.90;;;;;;5093485;27;20043;-73
2024/01/01 11:41:33;;;;;;;0.55;0.25;;;8.10;99.90;;;;;;5106430;27;20054;-73
2024/01/01 11:44:10;;;;;;;1.20;0.20;;;8.10;99.90;;;;;;5107236;27;20074;-72
2024/01/01 11:46:36;;;;;;;1.85;0.60;;;8.20;99.90;;;;;;5093073;27;20083;-73
2024/01/01 11:49:02;;;;;;;1.75;0.43;;;8.20;99.90;;;;;;5103131;27;20030;-73
2024/01/01 11:51:46;;;;;;;1.63;0.22;;;8.20;99.90;;;;;;5097433;27;20031;-73
2024/01/01 11:54:11;;;;;;;4.20;0.90;;;8.20;99.90;;;;;;5109363;27;20048;-73
2024/01/01 11:56:37;;;;;;;1.08;0.30;;;8.20;99.90;;;;;;5110353;28;20506;-73
2024/01/01 11:59:06;;;;;;;1.23;0.32;;;8.20;99.90;;;;;;5110844;28;20405;-73
2024/01/01 12:01:32;;;;;;;4.05;0.88;;;8.30;99.90;;;;;;5101501;27;20039;-73
2024/01/01 12:04:01;;;;;;;3.70;1.00;;;8.30;99.90;;;;;;5106713;28;20043;-73
2024/01/01 12:06:28;;;;;;;1.48;0.40;;;8.40;99.90;;;;;;5085324;27;20054;-73
2024/01/01 12:09:09;;;;;;;1.00;0.55;;;8.30;99.90;;;;;;5113774;27;20082;-73
2024/01/01 12:11:44;;;;;;;2.35;0.85;;;8.40;99.90;;;;;;5094120;27;20031;-73
2024/01/01 12:14:09;;;;;;;2.00;0.93;;;8.40;99.90;;;;;;5106196;27;20089;-73
2024/01/01 12:16:36;;;;;;;1.08;0.40;;;8.40;99.90;;;;;;5108915;27;20444;-73
2024/01/01 12:19:04;;;;;;;0.47;0.17;;;8.40;99.90;;;;;;5108617;27;20035;-73
2024/01/01 12:21:40;;;;;;;2.17;0.55;;;8.40;99.90;;;;;;5095656;27;20322;-73
2024/01/01 12:24:16;;;;;;;2.92;1.63;;;8.40;99.90;;;;;;5111607;27;20030;-73
2024/01/01 12:26:48;;;;;;;1.05;0.80;;;8.30;99.90;;;;;;5133598;27;20095;-72
2024/01/01 12:29:16;;;;;;;2.03;0.50;;;8.30;99.90;;;;;;5115400;27;20037;-73
2024/01/01 12:31:46;;;;;;;0.50;0.22;;;8.30;99.90;;;;;;5118770;27;20031;-73
2024/01/01 12:34:17;;;;;;;2.30;0.43;;;8.30;99.90;;;;;;5097849;27;20476;-72
2024/01/01 12:36:45;;;;;;;0.50;0.30;;;8.20;99.90;;;;;;5093690;27;20054;-73
2024/01/01 12:39:11;;;;;;;0.95;0.63;;;8.20;99.90;;;;;;5095763;27;20031;-73
2024/01/01 12:41:40;;;;;;;0.20;0.10;;;8.20;99.90;;;;;;5093510;27;20289;-72
2024/01/01 12:44:06;;;;;;;3.28;0.22;;;8.10;99.90;;;;;;5114707;27;20053;-72
2024/01/01 12:46:32;;;;;;;2.40;0.40;;;8.00;99.90;;;;;;5118409;27;20031;-73
2024/01/01 12:48:58;;;;;;;0.20;0.20;;;8.00;99.90;;;;;;5118106;27;20106;-73
2024/01/01 12:51:26;;;;;;;0.45;0.20;;;7.90;99.90;;;;;;5098893;27;20039;-72
2024/01/01 12:53:53;;;;;;;0.43;0.13;;;7.90;99.90;;;;;;5118218;27;20058;-72
2024/01/01 12:56:23;;;;;;;1.17;0.10;;;7.80;99.90;;;;;;5096183;27;20165;-73